Airfield :
LOGIN :

Register | Disclaimer

   EN    FR    IT 

 










Legend :    VFR   Marginal VFR   IFR   Intensive IFR   Very Intensive IFR
Visi :
Ceiling :
>= 8 km
>= 3000ft
5 to 8 km
1000 to 3000 ft
1500m to 5 km
500 to 1000 ft
800 to 1500m
200 to 500 ft
< 800m
< 200 ft
Symbols :   Thunderstorms  Fog  Heavy snow  Heavy precipitations  Wind > 20 kt
SIGMETs :     Misc.  Thunderstorms  Icing  Turbulence  Mountain Waves  Volcanic Ashes







- Airport Elevation : 313 ft
- IATA code : LEH
- Download approach charts


LFOH - Le Havre Octeville

CURRENT METAR :
  • 160630Z AUTO 28006KT CAVOK 18/14 Q1014 NOSIG

EXPIRED METARs :
  • 160600Z AUTO 28007KT CAVOK 18/15 Q1014 NOSIG
  • 160530Z AUTO 28007KT CAVOK 17/15 Q1014 NOSIG
  • 160500Z AUTO 27006KT CAVOK 16/14 Q1014
  • 160430Z AUTO 26003KT 200V280 9000 NSC 15/13 Q1014
  • 160400Z AUTO 27005KT CAVOK 15/13 Q1014
  • 160330Z AUTO 28006KT CAVOK 15/13 Q1014

TAF TAF LFOH
Valid from the 16 at 06:00 until the 17 at 06:00 UTC


160500Z 1606/1706 26006KT CAVOK
BECMG 1608/1611 32010KT
TEMPO 1619/1624 BKN005
ATIS : +33 2 35 54 64 93
No reported NOTAMs for that airfield.



MET'MAP, your aeronautical weather chart ! - Copyright ORBIFLY December 2007 - Disclaimer

ORBIFLY MET'MAP TEAM :

Programming & Development : Alexandra Zaïnal
Concept & Development : Baudouin d'Aumeries
Co-Development & Prog : Marc-Olivier Méhu
Technical & hardware support : Manuel Goepfert

Contact : metmap@orbifly.com




SOURCES & CREDITS :

   NOAA